createdAt,value
2017-08-21T00:02:25.566Z,77.30
2017-08-21T00:04:51.980Z,77.80
2017-08-21T00:07:19.099Z,77.50
2017-08-21T00:09:45.496Z,77.50
2017-08-21T00:12:11.891Z,77.40
2017-08-21T00:14:39.036Z,77.50
2017-08-21T00:17:06.161Z,78.10
2017-08-21T00:19:32.564Z,77.90
2017-08-21T00:21:58.953Z,78.00
2017-08-21T00:24:26.075Z,78.10
2017-08-21T00:26:52.488Z,78.10
2017-08-21T00:29:18.879Z,78.30
2017-08-21T00:31:45.278Z,78.50
2017-08-21T00:34:11.697Z,78.50
2017-08-21T00:36:38.083Z,79.10
2017-08-21T00:39:04.496Z,78.90
2017-08-21T00:41:31.645Z,78.50
2017-08-21T00:43:58.811Z,79.60
2017-08-21T00:46:25.250Z,78.70
2017-08-21T00:48:51.676Z,78.70
2017-08-21T00:51:18.167Z,78.40
2017-08-21T00:53:44.593Z,78.70
2017-08-21T00:56:10.991Z,78.10
2017-08-21T00:58:37.439Z,77.50
2017-08-21T01:01:03.806Z,77.50
2017-08-21T01:03:30.272Z,78.10
2017-08-21T01:05:57.426Z,78.10
2017-08-21T01:08:23.863Z,78.00
2017-08-21T01:10:50.287Z,77.50
2017-08-21T01:13:17.427Z,77.60
2017-08-21T01:15:44.545Z,78.30
2017-08-21T01:18:10.986Z,78.30
2017-08-21T01:20:37.440Z,77.80
2017-08-21T01:23:04.566Z,77.90
2017-08-21T01:25:30.995Z,77.70
2017-08-21T01:27:57.378Z,77.00
2017-08-21T01:30:23.748Z,78.30
2017-08-21T01:32:50.166Z,77.80
2017-08-21T01:35:16.558Z,78.10
2017-08-21T01:37:43.727Z,77.90
2017-08-21T01:40:10.128Z,77.90
2017-08-21T01:42:36.511Z,78.50
2017-08-21T01:45:02.944Z,78.10
2017-08-21T01:47:29.313Z,78.00
2017-08-21T01:49:55.704Z,78.80
2017-08-21T01:52:22.090Z,79.00
2017-08-21T01:54:48.503Z,78.90
2017-08-21T01:57:14.928Z,79.80
2017-08-21T01:59:41.311Z,79.00
2017-08-21T02:02:07.696Z,78.80
2017-08-21T02:04:34.125Z,79.70
2017-08-21T02:07:00.537Z,80.20
2017-08-21T02:09:26.953Z,80.10
2017-08-21T02:11:53.375Z,79.80
2017-08-21T02:14:19.758Z,79.90
2017-08-21T02:16:46.167Z,79.40
2017-08-21T02:19:12.559Z,80.00
2017-08-21T02:21:39.691Z,79.90
2017-08-21T02:24:06.091Z,79.80
2017-08-21T02:26:32.464Z,80.10
2017-08-21T02:28:59.629Z,81.00
2017-08-21T02:31:26.011Z,80.10
2017-08-21T02:33:52.434Z,79.60
2017-08-21T02:36:18.816Z,79.30
2017-08-21T02:38:45.972Z,80.50
2017-08-21T02:41:12.366Z,80.50
2017-08-21T02:43:38.767Z,79.90
2017-08-21T02:46:05.237Z,79.80
2017-08-21T02:48:31.628Z,79.60
2017-08-21T02:50:58.039Z,79.30
2017-08-21T02:53:24.420Z,79.50
2017-08-21T02:55:50.803Z,79.50
2017-08-21T02:58:17.243Z,80.50
2017-08-21T03:00:43.655Z,80.70
2017-08-21T03:03:10.827Z,80.80
2017-08-21T03:05:37.271Z,81.60
2017-08-21T03:08:03.715Z,81.50
2017-08-21T03:10:30.115Z,80.60
2017-08-21T03:12:56.498Z,79.60
2017-08-21T03:15:22.919Z,79.40
2017-08-21T03:17:49.297Z,79.30
2017-08-21T03:20:16.444Z,79.70
2017-08-21T03:22:42.859Z,79.60
2017-08-21T03:25:09.253Z,79.80
2017-08-21T03:27:35.647Z,79.80
2017-08-21T03:30:02.041Z,79.90
2017-08-21T03:32:28.457Z,79.10
2017-08-21T03:34:54.903Z,79.90
2017-08-21T03:37:21.324Z,80.10
2017-08-21T03:39:47.717Z,80.20
2017-08-21T03:42:14.143Z,80.00
2017-08-21T03:44:41.256Z,80.30
2017-08-21T03:47:07.644Z,80.30
2017-08-21T03:49:34.087Z,80.70
2017-08-21T03:52:00.478Z,80.70
2017-08-21T03:54:26.866Z,80.50
2017-08-21T03:56:53.242Z,80.50
2017-08-21T03:59:19.602Z,80.80
2017-08-21T04:01:46.067Z,81.30
2017-08-21T04:04:12.456Z,81.40
2017-08-21T04:06:38.875Z,81.30
2017-08-21T04:09:06.083Z,81.30
2017-08-21T04:11:32.479Z,80.60
2017-08-21T04:13:58.899Z,80.20
2017-08-21T04:16:26.040Z,80.10
2017-08-21T04:18:52.457Z,80.00
2017-08-21T04:21:18.871Z,80.30
2017-08-21T04:23:45.288Z,80.50
2017-08-21T04:26:11.667Z,80.10
2017-08-21T04:28:38.072Z,80.60
2017-08-21T04:31:04.456Z,80.70
2017-08-21T04:33:30.890Z,80.10
2017-08-21T04:35:57.259Z,80.00
2017-08-21T04:38:23.639Z,80.10
2017-08-21T04:40:50.788Z,79.60
2017-08-21T04:43:17.932Z,79.20
2017-08-21T04:45:44.352Z,79.10
2017-08-21T04:48:11.483Z,80.30
2017-08-21T04:50:37.878Z,80.00
2017-08-21T04:53:04.260Z,79.50
2017-08-21T04:55:30.652Z,78.90
2017-08-21T04:57:57.066Z,79.50
2017-08-21T05:00:23.452Z,79.00
2017-08-21T05:02:49.839Z,78.80
2017-08-21T05:05:16.276Z,79.00
2017-08-21T05:07:42.655Z,78.90
2017-08-21T05:10:09.068Z,79.30
2017-08-21T05:12:35.463Z,79.00
2017-08-21T05:15:01.919Z,78.00
2017-08-21T05:17:28.311Z,78.40
2017-08-21T05:19:55.478Z,78.60
2017-08-21T05:22:21.894Z,78.60
2017-08-21T05:24:49.187Z,78.70
2017-08-21T05:27:15.551Z,78.70
2017-08-21T05:29:41.947Z,77.80
2017-08-21T05:32:08.360Z,77.40
2017-08-21T05:34:34.740Z,77.50
2017-08-21T05:37:01.147Z,78.70
2017-08-21T05:39:27.523Z,78.50
2017-08-21T05:41:53.898Z,78.10
2017-08-21T05:44:20.296Z,76.60
2017-08-21T05:46:47.424Z,76.10
2017-08-21T05:49:13.831Z,76.10
2017-08-21T05:51:40.250Z,75.90
2017-08-21T05:54:06.623Z,75.60
2017-08-21T05:56:33.014Z,74.60
2017-08-21T05:58:59.392Z,73.80
2017-08-21T06:01:25.803Z,73.80
2017-08-21T06:03:59.032Z,73.10
2017-08-21T06:06:26.200Z,72.80
2017-08-21T06:08:52.583Z,72.70
2017-08-21T06:11:19.052Z,73.40
2017-08-21T06:13:46.166Z,73.30
2017-08-21T06:16:12.564Z,73.30
2017-08-21T06:18:38.934Z,73.80
2017-08-21T06:21:05.313Z,72.90
2017-08-21T06:23:31.715Z,73.30
2017-08-21T06:25:58.096Z,72.20
2017-08-21T06:29:04.120Z,72.30
2017-08-21T06:31:31.271Z,72.00
2017-08-21T06:33:57.660Z,71.90
2017-08-21T06:36:24.139Z,73.00
2017-08-21T06:38:50.539Z,71.40
2017-08-21T06:41:16.927Z,70.30
2017-08-21T06:43:43.321Z,69.70
2017-08-21T06:46:09.714Z,69.50
2017-08-21T06:48:36.128Z,69.40
2017-08-21T06:51:02.518Z,69.80
2017-08-21T06:53:28.935Z,72.70
2017-08-21T06:55:55.303Z,70.30
2017-08-21T06:58:21.720Z,68.90
2017-08-21T07:00:48.103Z,71.60
2017-08-21T07:03:14.494Z,71.30
2017-08-21T07:05:40.896Z,71.10
2017-08-21T07:08:07.296Z,72.90
2017-08-21T07:10:33.719Z,70.40
2017-08-21T07:13:00.099Z,69.60
2017-08-21T07:15:26.474Z,70.50
2017-08-21T07:17:52.875Z,70.00
2017-08-21T07:20:19.256Z,69.70
2017-08-21T07:22:45.660Z,70.60
2017-08-21T07:25:12.040Z,69.50
2017-08-21T07:27:38.434Z,69.50
2017-08-21T07:30:04.896Z,68.90
2017-08-21T07:32:31.292Z,69.30
2017-08-21T07:34:57.659Z,68.60
2017-08-21T07:37:24.066Z,69.10
2017-08-21T07:39:50.491Z,68.80
2017-08-21T07:42:16.901Z,69.70
2017-08-21T07:44:43.302Z,68.40
2017-08-21T07:47:09.674Z,70.50
2017-08-21T07:49:36.099Z,67.90
2017-08-21T07:52:02.504Z,67.60
2017-08-21T07:54:28.899Z,68.80
2017-08-21T07:56:55.316Z,67.90
2017-08-21T07:59:21.726Z,66.50
2017-08-21T08:01:48.131Z,65.20
2017-08-21T08:04:14.539Z,66.10
2017-08-21T08:06:40.958Z,67.20
2017-08-21T08:09:07.355Z,66.90
2017-08-21T08:11:33.731Z,65.00
2017-08-21T08:14:00.103Z,64.30
2017-08-21T08:16:26.508Z,64.10
2017-08-21T08:18:52.899Z,64.90
2017-08-21T08:21:19.297Z,63.60
2017-08-21T08:23:45.676Z,64.20
2017-08-21T08:26:12.091Z,61.70
2017-08-21T08:28:38.502Z,62.50
2017-08-21T08:31:04.899Z,61.50
2017-08-21T08:33:31.295Z,59.00
2017-08-21T08:35:57.686Z,60.00
2017-08-21T08:38:24.074Z,58.90
2017-08-21T08:40:50.489Z,57.10
2017-08-21T08:43:16.895Z,58.20
2017-08-21T08:45:43.304Z,54.90
2017-08-21T08:48:09.702Z,54.60
2017-08-21T08:50:36.140Z,54.60
2017-08-21T08:53:02.527Z,57.00
2017-08-21T08:55:28.922Z,55.60
2017-08-21T08:57:55.364Z,55.40
2017-08-21T09:00:21.827Z,53.60
2017-08-21T09:02:48.266Z,56.90
2017-08-21T09:05:14.685Z,54.60
2017-08-21T09:07:41.087Z,53.40
2017-08-21T09:10:07.488Z,52.90
2017-08-21T09:12:33.895Z,54.20
2017-08-21T09:15:00.288Z,55.20
2017-08-21T09:17:26.674Z,55.30
2017-08-21T09:19:53.112Z,54.60
2017-08-21T09:22:19.515Z,56.00
2017-08-21T09:24:45.901Z,54.50
2017-08-21T09:27:12.308Z,53.80
2017-08-21T09:29:38.703Z,53.30
2017-08-21T09:32:05.087Z,53.10
2017-08-21T09:34:31.493Z,52.00
2017-08-21T09:36:57.863Z,51.90
2017-08-21T09:39:24.270Z,53.60
2017-08-21T09:41:50.699Z,49.50
2017-08-21T09:44:17.088Z,51.10
2017-08-21T09:46:43.506Z,49.60
2017-08-21T09:49:09.904Z,52.80
2017-08-21T09:51:36.282Z,49.20
2017-08-21T09:54:02.679Z,53.10
2017-08-21T09:56:29.124Z,52.40
2017-08-21T09:58:55.519Z,52.10
2017-08-21T10:01:21.946Z,51.90
2017-08-21T10:03:48.338Z,52.10
2017-08-21T10:06:14.706Z,51.60
2017-08-21T10:08:41.083Z,52.10
2017-08-21T10:11:07.541Z,53.20
2017-08-21T10:13:33.924Z,54.20
2017-08-21T10:16:00.343Z,51.30
2017-08-21T10:18:26.736Z,49.50
2017-08-21T10:20:53.153Z,49.20
2017-08-21T10:23:19.571Z,50.00
2017-08-21T10:25:45.951Z,50.50
2017-08-21T10:28:12.334Z,49.10
2017-08-21T10:30:38.763Z,48.00
2017-08-21T10:33:05.179Z,48.50
2017-08-21T10:35:31.571Z,46.50
2017-08-21T10:37:57.980Z,46.90
2017-08-21T10:40:24.391Z,46.20
2017-08-21T10:42:50.767Z,49.00
2017-08-21T10:45:17.189Z,49.70
2017-08-21T10:47:43.643Z,48.10
2017-08-21T10:50:10.057Z,50.20
2017-08-21T10:52:36.459Z,46.90
2017-08-21T10:55:02.836Z,50.30
2017-08-21T10:57:29.240Z,48.00
2017-08-21T10:59:55.627Z,46.20
2017-08-21T11:02:22.038Z,47.30
2017-08-21T11:04:55.351Z,45.90
2017-08-21T11:07:21.771Z,45.50
2017-08-21T11:09:48.180Z,45.30
2017-08-21T11:12:14.591Z,44.30
2017-08-21T11:14:40.980Z,43.80
2017-08-21T11:17:07.396Z,47.70
2017-08-21T11:19:33.798Z,47.90
2017-08-21T11:22:00.184Z,46.60
2017-08-21T11:24:26.582Z,47.80
2017-08-21T11:26:52.972Z,45.10
2017-08-21T11:29:19.383Z,48.90
2017-08-21T11:31:45.795Z,47.90
2017-08-21T11:34:12.167Z,46.90
2017-08-21T11:36:38.591Z,45.40
2017-08-21T11:39:04.968Z,46.40
2017-08-21T11:41:31.380Z,47.90
2017-08-21T11:43:57.799Z,47.80
2017-08-21T11:46:24.186Z,47.30
2017-08-21T11:48:50.556Z,45.30
2017-08-21T11:51:16.975Z,41.80
2017-08-21T11:53:43.389Z,44.10
2017-08-21T11:56:09.810Z,46.60
2017-08-21T11:58:36.178Z,44.20
2017-08-21T12:01:02.584Z,43.70
2017-08-21T12:03:29.010Z,44.30
2017-08-21T12:05:55.408Z,42.60
2017-08-21T12:08:21.816Z,41.10
2017-08-21T12:10:48.211Z,43.60
2017-08-21T12:13:14.599Z,40.70
2017-08-21T12:15:41.040Z,41.30
2017-08-21T12:18:07.439Z,40.00
2017-08-21T12:20:33.831Z,39.10
2017-08-21T12:23:00.260Z,40.90
2017-08-21T12:25:26.667Z,37.00
2017-08-21T12:27:53.075Z,38.30
2017-08-21T12:30:19.462Z,37.90
2017-08-21T12:32:45.827Z,38.40
2017-08-21T12:35:12.240Z,38.10
2017-08-21T12:37:38.628Z,36.60
2017-08-21T12:40:05.035Z,36.60
2017-08-21T12:42:31.439Z,33.80
2017-08-21T12:44:57.830Z,36.50
2017-08-21T12:47:24.215Z,32.20
2017-08-21T12:49:50.611Z,34.80
2017-08-21T12:52:16.984Z,32.70
2017-08-21T12:54:43.355Z,35.20
2017-08-21T12:57:09.772Z,35.70
2017-08-21T12:59:36.151Z,34.10
2017-08-21T13:02:02.540Z,33.90
2017-08-21T13:04:28.955Z,34.40
2017-08-21T13:06:55.330Z,31.20
2017-08-21T13:09:21.740Z,32.40
2017-08-21T13:11:48.118Z,30.50
2017-08-21T13:14:14.523Z,33.80
2017-08-21T13:16:40.952Z,33.10
2017-08-21T13:19:07.351Z,32.70
2017-08-21T13:21:33.762Z,31.50
2017-08-21T13:24:00.170Z,32.00
2017-08-21T13:26:26.588Z,29.50
2017-08-21T13:28:52.967Z,31.80
2017-08-21T13:31:19.370Z,29.60
2017-08-21T13:33:45.768Z,29.70
2017-08-21T13:36:12.128Z,30.10
2017-08-21T13:38:38.531Z,28.70
2017-08-21T13:41:04.922Z,30.10
2017-08-21T13:43:31.331Z,28.90
2017-08-21T13:45:57.751Z,31.60
2017-08-21T13:48:24.163Z,29.20
2017-08-21T13:50:50.584Z,27.80
2017-08-21T13:53:17.011Z,29.10
2017-08-21T13:55:43.395Z,28.70
2017-08-21T13:58:09.812Z,28.90
2017-08-21T14:00:36.206Z,30.00
2017-08-21T14:03:02.623Z,32.00
2017-08-21T14:05:29.011Z,29.20
2017-08-21T14:07:55.403Z,29.90
2017-08-21T14:10:21.795Z,31.00
2017-08-21T14:12:48.183Z,31.20
2017-08-21T14:15:14.596Z,28.40
2017-08-21T14:17:40.967Z,26.60
2017-08-21T14:20:07.358Z,28.60
2017-08-21T14:22:33.808Z,28.60
2017-08-21T14:25:00.215Z,30.20
2017-08-21T14:27:26.643Z,28.10
2017-08-21T14:29:53.016Z,26.40
2017-08-21T14:32:19.476Z,31.40
2017-08-21T14:34:45.852Z,26.10
2017-08-21T14:37:12.244Z,26.00
2017-08-21T14:39:38.655Z,26.40
2017-08-21T14:42:05.053Z,27.10
2017-08-21T14:44:31.431Z,26.80
2017-08-21T14:46:58.087Z,27.70
2017-08-21T14:49:24.476Z,29.80
2017-08-21T14:51:50.896Z,29.50
2017-08-21T14:54:17.292Z,27.80
2017-08-21T14:56:43.703Z,28.70
2017-08-21T14:59:10.086Z,26.50
2017-08-21T15:01:36.504Z,29.40
2017-08-21T15:04:02.952Z,29.60
2017-08-21T15:06:29.355Z,27.90
2017-08-21T15:08:55.757Z,29.70
2017-08-21T15:11:22.141Z,28.40
2017-08-21T15:13:48.587Z,28.00
2017-08-21T15:16:14.995Z,29.90
2017-08-21T15:18:41.403Z,29.90
2017-08-21T15:21:08.403Z,32.60
2017-08-21T15:23:34.791Z,31.00
2017-08-21T15:26:01.172Z,31.60
2017-08-21T15:28:27.607Z,32.10
2017-08-21T15:30:54.015Z,30.30
2017-08-21T15:33:20.438Z,31.80
2017-08-21T15:35:46.849Z,32.90
2017-08-21T15:38:13.266Z,32.50
2017-08-21T15:40:54.555Z,33.20
2017-08-21T15:43:20.971Z,32.40
2017-08-21T15:45:47.399Z,32.70
2017-08-21T15:48:13.778Z,33.40
2017-08-21T15:50:40.193Z,34.10
2017-08-21T15:53:06.613Z,35.20
2017-08-21T15:55:33.019Z,34.70
2017-08-21T15:57:59.419Z,36.80
2017-08-21T16:00:25.827Z,36.30
2017-08-21T16:02:52.218Z,35.10
2017-08-21T16:05:18.647Z,33.60
2017-08-21T16:07:45.035Z,37.90
2017-08-21T16:10:11.456Z,36.10
2017-08-21T16:12:37.951Z,38.50
2017-08-21T16:15:04.419Z,39.70
2017-08-21T16:17:30.796Z,38.50
2017-08-21T16:19:57.206Z,35.60
2017-08-21T16:22:23.651Z,36.80
2017-08-21T16:24:50.090Z,36.60
2017-08-21T16:34:57.697Z,39.20
2017-08-21T16:37:24.323Z,39.50
2017-08-21T16:39:51.818Z,40.00
2017-08-21T16:42:18.294Z,38.60
2017-08-21T16:44:44.719Z,38.80
2017-08-21T16:47:11.307Z,37.90
2017-08-21T16:49:37.746Z,39.50
2017-08-21T16:52:04.136Z,40.50
2017-08-21T16:54:30.527Z,40.20
2017-08-21T16:56:56.890Z,36.70
2017-08-21T16:59:23.292Z,39.10
2017-08-21T17:01:49.698Z,40.20
2017-08-21T17:04:16.104Z,40.30
2017-08-21T17:06:42.480Z,41.20
2017-08-21T17:09:08.908Z,41.30
2017-08-21T17:11:35.349Z,40.40
2017-08-21T17:14:01.724Z,40.20
2017-08-21T17:16:28.139Z,40.90
2017-08-21T17:18:54.596Z,38.60
2017-08-21T17:21:21.043Z,40.70
2017-08-21T17:23:47.435Z,41.40
2017-08-21T17:26:13.823Z,40.70
2017-08-21T17:28:40.258Z,40.90
2017-08-21T17:31:06.660Z,39.90
2017-08-21T17:33:33.056Z,40.10
2017-08-21T17:35:59.469Z,40.30
2017-08-21T17:38:25.932Z,37.10
2017-08-21T17:40:52.423Z,38.50
2017-08-21T17:43:18.859Z,39.80
2017-08-21T17:45:45.256Z,38.10
2017-08-21T17:48:11.662Z,39.00
2017-08-21T17:50:38.444Z,38.30
2017-08-21T17:53:04.867Z,39.50
2017-08-21T17:55:31.252Z,40.20
2017-08-21T17:57:57.673Z,41.20
2017-08-21T18:00:24.840Z,42.80
2017-08-21T18:02:51.272Z,42.80
2017-08-21T18:05:17.645Z,43.90
2017-08-21T18:07:44.036Z,46.20
2017-08-21T18:10:10.453Z,46.30
2017-08-21T18:12:36.909Z,47.90
2017-08-21T18:15:03.352Z,47.50
2017-08-21T18:17:29.736Z,48.90
2017-08-21T18:19:56.140Z,49.50
2017-08-21T18:22:22.551Z,49.60
2017-08-21T18:24:48.963Z,50.00
2017-08-21T18:27:15.341Z,50.20
2017-08-21T18:29:41.735Z,50.40
2017-08-21T18:32:08.139Z,51.10
2017-08-21T18:34:34.523Z,51.80
2017-08-21T18:37:00.931Z,53.00
2017-08-21T18:39:27.318Z,53.00
2017-08-21T18:41:53.736Z,53.00
2017-08-21T18:44:20.120Z,52.00
2017-08-21T18:46:46.547Z,53.80
2017-08-21T18:49:12.928Z,53.00
2017-08-21T18:51:39.350Z,52.90
2017-08-21T18:54:05.779Z,54.30
2017-08-21T18:56:32.163Z,53.30
2017-08-21T18:58:58.571Z,52.70
2017-08-21T19:01:24.999Z,53.20
2017-08-21T19:03:51.368Z,54.40
2017-08-21T19:06:17.774Z,54.80
2017-08-21T19:08:44.184Z,54.90
2017-08-21T19:11:10.587Z,56.00
2017-08-21T19:13:37.846Z,56.20
2017-08-21T19:16:04.290Z,56.10
2017-08-21T19:18:30.706Z,56.60
2017-08-21T19:20:57.115Z,57.00
2017-08-21T19:23:23.495Z,56.20
2017-08-21T19:25:49.908Z,56.10
2017-08-21T19:28:16.349Z,56.00
2017-08-21T19:30:42.783Z,56.80
2017-08-21T19:33:09.775Z,56.70
2017-08-21T19:35:36.228Z,57.90
2017-08-21T19:38:02.615Z,58.70
2017-08-21T19:40:29.023Z,57.60
2017-08-21T19:42:55.452Z,56.10
2017-08-21T19:45:21.907Z,57.80
2017-08-21T19:47:48.355Z,58.30
2017-08-21T19:50:14.743Z,58.30
2017-08-21T19:52:41.168Z,57.90
2017-08-21T19:55:07.576Z,57.60
2017-08-21T19:57:33.972Z,57.50
2017-08-21T20:00:00.348Z,56.80
2017-08-21T20:02:26.751Z,57.70
2017-08-21T20:04:53.134Z,58.30
2017-08-21T20:07:19.520Z,57.60
2017-08-21T20:09:45.944Z,57.80
2017-08-21T20:12:12.412Z,57.50
2017-08-21T20:14:38.899Z,56.10
2017-08-21T20:17:05.422Z,57.00
2017-08-21T20:19:31.811Z,57.20
2017-08-21T20:21:58.228Z,56.70
2017-08-21T20:24:24.623Z,57.20
2017-08-21T20:26:51.048Z,57.00
2017-08-21T20:29:17.448Z,57.40
2017-08-21T20:31:43.815Z,56.50
2017-08-21T20:34:10.195Z,57.10
2017-08-21T20:36:36.599Z,57.60
2017-08-21T20:39:03.031Z,57.50
2017-08-21T20:41:29.432Z,57.40
2017-08-21T20:43:55.842Z,58.30
2017-08-21T20:46:22.217Z,58.40
2017-08-21T20:48:48.586Z,58.20
2017-08-21T20:51:15.010Z,57.70
2017-08-21T20:53:41.412Z,57.70
2017-08-21T20:56:07.823Z,58.80
2017-08-21T20:58:34.227Z,58.40
2017-08-21T21:01:00.591Z,59.30
2017-08-21T21:03:27.000Z,59.10
2017-08-21T21:05:53.416Z,58.10
2017-08-21T21:08:19.799Z,57.90
2017-08-21T21:10:46.188Z,57.80
2017-08-21T21:13:12.595Z,57.30
2017-08-21T21:15:39.035Z,57.40
2017-08-21T21:18:05.480Z,57.50
2017-08-21T21:20:31.868Z,57.30
2017-08-21T21:22:58.462Z,57.90
2017-08-21T21:25:24.859Z,58.40
2017-08-21T21:27:51.250Z,58.30
2017-08-21T21:30:17.661Z,58.80
2017-08-21T21:32:44.035Z,59.60
2017-08-21T21:35:10.431Z,59.60
2017-08-21T21:37:36.827Z,58.90
2017-08-21T21:40:03.204Z,58.70
2017-08-21T21:42:29.598Z,58.60
2017-08-21T21:44:55.989Z,57.30
2017-08-21T21:47:22.392Z,57.70
2017-08-21T21:49:48.770Z,58.80
2017-08-21T21:52:15.171Z,58.20
2017-08-21T21:54:41.582Z,58.30
2017-08-21T21:57:07.947Z,59.00
2017-08-21T21:59:34.318Z,58.30
2017-08-21T22:02:00.731Z,58.70
2017-08-21T22:04:27.120Z,58.50
2017-08-21T22:06:53.515Z,58.30
2017-08-21T22:09:19.883Z,58.30
2017-08-21T22:11:46.335Z,58.50
2017-08-21T22:14:12.719Z,58.10
2017-08-21T22:16:39.104Z,58.30
2017-08-21T22:19:05.535Z,58.40
2017-08-21T22:21:31.968Z,58.90
2017-08-21T22:23:58.379Z,58.90
2017-08-21T22:26:24.760Z,59.10
2017-08-21T22:28:51.143Z,59.00
2017-08-21T22:31:17.559Z,59.00
2017-08-21T22:33:43.936Z,59.70
2017-08-21T22:36:10.364Z,60.90
2017-08-21T22:38:36.738Z,61.00
2017-08-21T22:41:03.116Z,60.80
2017-08-21T22:43:29.525Z,60.80
2017-08-21T22:45:55.900Z,61.80
2017-08-21T22:48:22.311Z,62.30
2017-08-21T22:50:48.698Z,62.60
2017-08-21T22:53:15.101Z,62.80
2017-08-21T22:55:41.491Z,63.60
2017-08-21T22:58:07.858Z,63.70
2017-08-21T23:00:34.275Z,64.40
2017-08-21T23:03:00.684Z,64.70
2017-08-21T23:05:27.059Z,65.30
2017-08-21T23:07:53.460Z,66.00
2017-08-21T23:10:19.835Z,65.80
2017-08-21T23:12:46.269Z,66.20
2017-08-21T23:15:12.643Z,66.90
2017-08-21T23:17:39.039Z,67.50
2017-08-21T23:20:05.464Z,67.60
2017-08-21T23:22:31.890Z,67.50
2017-08-21T23:24:58.295Z,67.40
2017-08-21T23:27:24.724Z,67.10
2017-08-21T23:29:51.094Z,68.20
2017-08-21T23:32:17.487Z,68.10
2017-08-21T23:34:43.883Z,68.10
2017-08-21T23:37:10.284Z,68.30
2017-08-21T23:39:36.680Z,68.70
2017-08-21T23:42:03.091Z,68.20
2017-08-21T23:44:29.543Z,68.10
2017-08-21T23:46:55.934Z,68.40
2017-08-21T23:49:22.311Z,68.40
2017-08-21T23:51:48.720Z,68.30
2017-08-21T23:54:15.095Z,68.20
2017-08-21T23:56:41.483Z,68.80
2017-08-21T23:59:07.885Z,68.80
